Time;durP1;ratioP1;P1;durP2;ratioP2;P2;SDS_P1;SDS_P2;PMS_P1;PMS_P2;Temp;Humidity;BMP_temperature;BMP_pressure;BME280_temperature;BME280_humidity;BME280_pressure;Samples;Min_cycle;Max_cycle;Signal;HPM_P1;HPM_P2
2021/07/02 00:00:17;;;;;;;70.23;27.07;;;17.00;99.90;;;;;;5104514;28;20262;-51
2021/07/02 00:02:44;;;;;;;38.70;24.40;;;16.70;99.90;;;;;;5087412;28;20283;-46
2021/07/02 00:05:12;;;;;;;47.70;26.33;;;16.80;99.90;;;;;;5104550;28;20197;-46
2021/07/02 00:07:39;;;;;;;57.37;27.07;;;16.60;99.90;;;;;;5089902;28;20856;-47
2021/07/02 00:10:08;;;;;;;73.27;27.50;;;16.70;99.90;;;;;;5098719;28;20251;-47
2021/07/02 00:12:36;;;;;;;102.80;27.40;;;16.70;99.90;;;;;;5099994;28;20229;-48
2021/07/02 00:15:02;;;;;;;76.50;26.57;;;16.70;99.90;;;;;;5103283;28;20213;-46
2021/07/02 00:17:29;;;;;;;81.00;27.20;;;16.80;99.90;;;;;;5075542;28;20213;-49
2021/07/02 00:19:56;;;;;;;64.83;28.30;;;16.70;99.90;;;;;;5104281;28;20193;-46
2021/07/02 00:22:22;;;;;;;66.80;27.20;;;16.70;99.90;;;;;;5094839;28;20226;-49
2021/07/02 00:24:49;;;;;;;81.77;27.27;;;16.70;99.90;;;;;;5104001;28;20189;-50
2021/07/02 00:27:17;;;;;;;81.33;25.87;;;16.60;99.90;;;;;;5097883;28;20194;-47
2021/07/02 00:29:44;;;;;;;56.57;25.57;;;16.50;99.90;;;;;;5100044;28;20193;-49
2021/07/02 00:32:11;;;;;;;42.70;25.60;;;16.70;99.90;;;;;;5099606;28;20228;-50
2021/07/02 00:34:38;;;;;;;44.60;25.43;;;16.60;99.90;;;;;;5092255;28;20428;-47
2021/07/02 00:37:05;;;;;;;86.27;26.90;;;16.60;99.90;;;;;;5096477;28;20201;-50
2021/07/02 00:39:32;;;;;;;46.57;25.47;;;16.60;99.90;;;;;;5100467;28;20463;-47
2021/07/02 00:41:59;;;;;;;52.17;26.43;;;16.50;99.90;;;;;;5103003;28;20224;-48
2021/07/02 00:44:40;;;;;;;57.07;26.00;;;16.50;99.90;;;;;;5089969;28;20276;-52
2021/07/02 00:47:07;;;;;;;48.23;25.30;;;16.60;99.90;;;;;;5096295;28;20685;-47
2021/07/02 00:49:34;;;;;;;47.50;25.27;;;16.50;99.90;;;;;;5079784;28;20739;-47
2021/07/02 00:52:01;;;;;;;40.20;23.77;;;16.50;99.90;;;;;;5097314;28;20213;-48
2021/07/02 00:54:28;;;;;;;42.03;25.60;;;16.40;99.90;;;;;;5087780;28;20201;-46
2021/07/02 00:56:56;;;;;;;41.87;25.43;;;16.50;99.90;;;;;;5097145;28;20202;-47
2021/07/02 00:59:23;;;;;;;53.93;26.07;;;16.50;99.90;;;;;;5108864;27;20658;-47
2021/07/02 01:01:51;;;;;;;44.23;25.83;;;16.40;99.90;;;;;;5095179;28;20649;-47
2021/07/02 01:04:18;;;;;;;50.00;25.80;;;16.40;99.90;;;;;;5080671;28;20634;-50
2021/07/02 01:06:46;;;;;;;55.67;25.33;;;16.60;99.90;;;;;;5088722;28;20205;-50
2021/07/02 01:09:13;;;;;;;46.07;25.73;;;16.40;99.90;;;;;;5089876;28;20238;-46
2021/07/02 01:11:40;;;;;;;47.27;25.73;;;16.60;99.90;;;;;;5090307;28;21017;-48
2021/07/02 01:14:07;;;;;;;57.50;26.87;;;16.40;99.90;;;;;;5090785;28;20193;-50
2021/07/02 01:16:34;;;;;;;47.87;26.37;;;16.50;99.90;;;;;;5097904;28;20279;-47
2021/07/02 01:19:03;;;;;;;57.93;26.47;;;16.40;99.90;;;;;;5082972;28;20213;-47
2021/07/02 01:21:32;;;;;;;52.43;27.40;;;16.80;99.90;;;;;;5093711;28;20225;-52
2021/07/02 01:23:59;;;;;;;50.17;27.90;;;16.70;99.90;;;;;;5089515;28;20403;-49
2021/07/02 01:26:29;;;;;;;48.50;26.70;;;16.50;99.90;;;;;;5101751;28;20205;-47
2021/07/02 01:28:57;;;;;;;44.17;26.90;;;16.40;99.90;;;;;;5091265;28;20235;-46
2021/07/02 01:31:24;;;;;;;41.23;27.03;;;16.60;99.90;;;;;;5103296;28;20231;-49
2021/07/02 01:33:51;;;;;;;53.40;27.37;;;16.50;99.90;;;;;;5084722;28;20854;-50
2021/07/02 01:36:19;;;;;;;64.83;28.50;;;16.50;99.90;;;;;;5092184;28;20216;-50
2021/07/02 01:38:48;;;;;;;54.67;28.80;;;16.50;99.90;;;;;;5092335;28;20201;-49
2021/07/02 01:41:15;;;;;;;54.60;29.40;;;16.60;99.90;;;;;;5091017;28;20222;-47
2021/07/02 01:43:44;;;;;;;50.73;27.33;;;16.40;99.90;;;;;;5093678;28;20767;-47
2021/07/02 01:46:12;;;;;;;51.73;26.67;;;16.70;99.90;;;;;;5102502;28;20189;-52
2021/07/02 01:48:39;;;;;;;48.90;27.33;;;16.40;99.90;;;;;;5100715;28;20205;-50
2021/07/02 01:51:07;;;;;;;52.80;27.70;;;16.60;99.90;;;;;;5085706;28;20891;-47
2021/07/02 01:53:34;;;;;;;49.23;26.67;;;16.40;99.90;;;;;;5100092;28;20228;-47
2021/07/02 01:56:03;;;;;;;44.00;25.40;;;16.60;99.90;;;;;;5093046;28;20791;-46
2021/07/02 01:58:33;;;;;;;47.73;26.13;;;16.40;99.90;;;;;;5090222;28;20206;-49
2021/07/02 02:01:14;;;;;;;51.27;25.33;;;16.50;99.90;;;;;;5101768;28;20235;-50
2021/07/02 02:03:43;;;;;;;38.80;21.23;;;16.70;99.90;;;;;;5098116;28;20220;-51
2021/07/02 02:06:10;;;;;;;32.23;19.23;;;16.50;99.90;;;;;;5081912;28;20216;-47
2021/07/02 02:08:38;;;;;;;33.57;17.87;;;16.40;99.90;;;;;;5099063;28;20204;-51
2021/07/02 02:11:07;;;;;;;29.07;18.23;;;16.40;99.90;;;;;;5092515;28;20213;-47
2021/07/02 02:13:40;;;;;;;24.30;16.97;;;16.40;99.90;;;;;;5099122;28;20237;-51
2021/07/02 02:16:10;;;;;;;24.63;16.10;;;16.40;99.90;;;;;;5095901;28;20205;-51
2021/07/02 02:18:37;;;;;;;26.63;14.90;;;16.30;99.90;;;;;;5099232;28;20261;-49
2021/07/02 02:21:04;;;;;;;24.47;14.40;;;16.30;99.90;;;;;;5101096;28;20225;-49
2021/07/02 02:23:32;;;;;;;23.53;14.93;;;16.50;99.90;;;;;;5085710;28;20209;-50
2021/07/02 02:26:01;;;;;;;20.33;14.23;;;16.60;99.90;;;;;;5091292;28;20206;-47
2021/07/02 02:28:30;;;;;;;23.13;14.90;;;16.30;99.90;;;;;;5100300;28;20575;-49
2021/07/02 02:30:57;;;;;;;24.07;15.07;;;16.40;99.90;;;;;;5094161;28;20217;-46
2021/07/02 02:33:25;;;;;;;23.93;14.20;;;16.20;99.90;;;;;;5093891;28;20201;-46
2021/07/02 02:35:53;;;;;;;22.13;15.17;;;16.20;99.90;;;;;;5099321;28;20901;-50
2021/07/02 02:38:19;;;;;;;24.20;14.77;;;16.20;99.90;;;;;;5091959;28;20573;-46
2021/07/02 02:40:47;;;;;;;22.20;15.77;;;16.20;99.90;;;;;;5092968;28;20308;-49
2021/07/02 02:43:14;;;;;;;22.20;14.83;;;16.10;99.90;;;;;;5115894;27;20647;-47
2021/07/02 02:45:42;;;;;;;24.50;15.13;;;16.10;99.90;;;;;;5100490;28;20297;-49
2021/07/02 02:48:08;;;;;;;21.87;13.90;;;16.20;99.90;;;;;;5105017;28;20196;-46
2021/07/02 02:50:35;;;;;;;23.50;14.93;;;16.00;99.90;;;;;;5096524;28;20201;-48
2021/07/02 02:53:02;;;;;;;30.57;15.03;;;16.00;99.90;;;;;;5090520;27;20336;-49
2021/07/02 02:55:29;;;;;;;22.40;15.63;;;16.00;99.90;;;;;;5104148;28;20218;-52
2021/07/02 02:57:56;;;;;;;21.57;15.03;;;16.00;99.90;;;;;;5088758;28;20257;-51
2021/07/02 03:00:23;;;;;;;27.17;15.23;;;15.90;99.90;;;;;;5105749;28;20316;-51
2021/07/02 03:02:51;;;;;;;23.17;14.90;;;15.90;99.90;;;;;;5099879;28;20197;-47
2021/07/02 03:05:18;;;;;;;25.43;15.47;;;15.90;99.90;;;;;;5106192;28;20284;-50
2021/07/02 03:07:46;;;;;;;24.43;15.23;;;15.90;99.90;;;;;;5089227;28;20281;-50
2021/07/02 03:10:15;;;;;;;20.47;13.60;;;15.90;99.90;;;;;;5103169;28;20196;-50
2021/07/02 03:12:42;;;;;;;24.47;14.10;;;15.80;99.90;;;;;;5084696;28;20252;-47
2021/07/02 03:15:10;;;;;;;25.83;14.83;;;15.80;99.90;;;;;;5102775;28;20563;-52
2021/07/02 03:17:40;;;;;;;23.33;13.63;;;15.80;99.90;;;;;;5099535;28;20189;-51
2021/07/02 03:20:10;;;;;;;24.70;15.63;;;15.80;99.90;;;;;;5103159;28;20620;-46
2021/07/02 03:22:37;;;;;;;27.53;15.83;;;15.70;99.90;;;;;;5093588;28;20292;-51
2021/07/02 03:25:06;;;;;;;27.23;16.13;;;15.70;99.90;;;;;;5088673;28;20211;-50
2021/07/02 03:27:33;;;;;;;23.87;15.30;;;15.60;99.90;;;;;;5094457;28;20841;-50
2021/07/02 03:30:01;;;;;;;25.67;15.67;;;15.60;99.90;;;;;;5105405;28;20201;-52
2021/07/02 03:32:31;;;;;;;24.70;14.90;;;15.60;99.90;;;;;;5093234;28;20333;-47
2021/07/02 03:34:58;;;;;;;24.17;14.57;;;15.60;99.90;;;;;;5092691;28;20464;-50
2021/07/02 03:37:29;;;;;;;26.57;14.57;;;15.60;99.90;;;;;;5101182;28;20202;-49
2021/07/02 03:39:56;;;;;;;23.20;14.57;;;15.60;99.90;;;;;;5086954;28;20923;-51
2021/07/02 03:42:23;;;;;;;27.23;16.23;;;15.60;99.90;;;;;;5103190;28;20221;-51
2021/07/02 03:44:51;;;;;;;25.13;15.10;;;15.60;99.90;;;;;;5084998;28;20658;-49
2021/07/02 03:47:18;;;;;;;24.43;14.60;;;15.60;99.90;;;;;;5099034;28;20246;-48
2021/07/02 03:49:45;;;;;;;26.43;14.50;;;15.60;99.90;;;;;;5100963;28;20208;-52
2021/07/02 03:52:13;;;;;;;25.03;14.60;;;15.50;99.90;;;;;;5097850;28;20761;-49
2021/07/02 03:54:41;;;;;;;24.60;16.07;;;15.50;99.90;;;;;;5088874;28;20212;-47
2021/07/02 03:57:14;;;;;;;27.47;15.00;;;15.50;99.90;;;;;;5100065;28;20224;-50
2021/07/02 03:59:42;;;;;;;23.27;14.77;;;15.50;99.90;;;;;;5091621;28;20224;-45
2021/07/02 04:02:09;;;;;;;26.73;14.37;;;15.60;99.90;;;;;;5094265;28;20209;-48
2021/07/02 04:04:37;;;;;;;23.27;14.90;;;15.60;99.90;;;;;;5103675;28;20579;-45
2021/07/02 04:07:04;;;;;;;29.03;14.53;;;15.60;99.90;;;;;;5094600;28;20193;-47
2021/07/02 04:09:31;;;;;;;27.90;15.57;;;15.60;99.90;;;;;;5103387;28;20228;-48
2021/07/02 04:12:00;;;;;;;23.33;13.97;;;15.60;99.90;;;;;;5086652;28;20224;-47
2021/07/02 04:14:27;;;;;;;26.37;14.47;;;15.60;99.90;;;;;;5104427;28;20216;-48
2021/07/02 04:16:53;;;;;;;19.73;13.77;;;15.60;99.90;;;;;;5093339;28;20205;-48
2021/07/02 04:19:20;;;;;;;25.77;14.30;;;15.60;99.90;;;;;;5104811;28;20207;-49
2021/07/02 04:21:47;;;;;;;21.90;13.43;;;15.70;99.90;;;;;;5096952;28;20221;-51
2021/07/02 04:24:15;;;;;;;24.40;13.90;;;15.60;99.90;;;;;;5103065;28;20658;-47
2021/07/02 04:26:41;;;;;;;22.73;14.83;;;15.70;99.90;;;;;;5084482;28;20201;-47
2021/07/02 04:29:09;;;;;;;25.90;13.87;;;15.70;99.90;;;;;;5095072;28;20201;-51
2021/07/02 04:31:36;;;;;;;24.47;14.60;;;15.60;99.90;;;;;;5096479;28;20419;-52
2021/07/02 04:34:02;;;;;;;26.90;14.27;;;15.60;99.90;;;;;;5101809;28;20804;-48
2021/07/02 04:36:29;;;;;;;25.97;13.93;;;15.60;99.90;;;;;;5098789;28;20224;-53
2021/07/02 04:38:57;;;;;;;21.30;13.47;;;15.60;99.90;;;;;;5092701;28;20197;-49
2021/07/02 04:41:24;;;;;;;25.70;14.43;;;15.60;99.90;;;;;;5090172;28;20225;-52
2021/07/02 04:43:51;;;;;;;22.57;13.27;;;15.60;99.90;;;;;;5087094;28;20197;-50
2021/07/02 04:46:19;;;;;;;22.27;14.00;;;15.60;99.90;;;;;;5103086;28;20189;-52
2021/07/02 04:48:45;;;;;;;23.37;14.07;;;15.60;99.90;;;;;;5095708;28;20213;-47
2021/07/02 04:51:13;;;;;;;21.37;13.27;;;15.60;99.90;;;;;;5101620;28;20225;-50
2021/07/02 04:53:39;;;;;;;19.70;14.03;;;15.60;99.90;;;;;;5102410;28;20289;-49
2021/07/02 04:56:06;;;;;;;24.80;13.27;;;15.70;99.90;;;;;;5087338;28;20228;-49
2021/07/02 04:58:33;;;;;;;22.03;13.53;;;15.70;99.90;;;;;;5103097;27;20830;-48
2021/07/02 05:00:59;;;;;;;20.20;12.70;;;15.70;99.90;;;;;;5099726;28;20217;-50
2021/07/02 05:03:27;;;;;;;20.87;13.63;;;15.80;99.90;;;;;;5094001;28;20251;-51
2021/07/02 05:05:54;;;;;;;21.20;13.57;;;15.80;99.90;;;;;;5090533;28;20760;-50
2021/07/02 05:08:23;;;;;;;22.13;14.00;;;15.80;99.90;;;;;;5103259;28;20201;-48
2021/07/02 05:10:50;;;;;;;24.73;13.27;;;15.80;99.90;;;;;;5087053;28;20245;-48
2021/07/02 05:13:17;;;;;;;18.70;13.07;;;15.80;99.90;;;;;;5076524;28;20274;-51
2021/07/02 05:15:43;;;;;;;21.70;13.10;;;15.80;99.90;;;;;;5102889;28;20225;-48
2021/07/02 05:18:10;;;;;;;21.10;12.77;;;15.80;99.90;;;;;;5082627;28;20189;-47
2021/07/02 05:20:38;;;;;;;19.63;12.93;;;15.80;99.90;;;;;;5096517;28;20209;-50
2021/07/02 05:23:04;;;;;;;22.00;12.63;;;15.80;99.90;;;;;;5100977;28;20201;-51
2021/07/02 05:25:31;;;;;;;22.03;13.77;;;15.90;99.90;;;;;;5094031;28;20771;-53
2021/07/02 05:27:58;;;;;;;16.70;11.90;;;15.90;99.90;;;;;;5087266;28;20795;-46
2021/07/02 05:30:26;;;;;;;20.13;12.60;;;15.90;99.90;;;;;;5096787;28;20201;-52
2021/07/02 05:32:53;;;;;;;22.03;11.87;;;15.90;99.90;;;;;;5090904;28;20193;-46
2021/07/02 05:35:19;;;;;;;16.80;11.60;;;15.90;99.90;;;;;;5085283;28;20616;-51
2021/07/02 05:37:48;;;;;;;19.90;12.60;;;16.00;99.90;;;;;;5096827;28;20228;-51
2021/07/02 05:40:17;;;;;;;20.97;12.23;;;16.00;99.90;;;;;;5088576;28;20201;-51
2021/07/02 05:42:44;;;;;;;17.07;12.10;;;16.00;99.90;;;;;;5096067;28;20555;-51
2021/07/02 05:45:11;;;;;;;17.50;12.40;;;16.10;99.90;;;;;;5077146;28;20201;-52
2021/07/02 05:47:38;;;;;;;18.77;13.37;;;16.20;99.90;;;;;;5097115;28;20630;-49
2021/07/02 05:50:07;;;;;;;17.63;11.77;;;16.30;99.90;;;;;;5093943;28;20197;-52
2021/07/02 05:52:34;;;;;;;17.10;12.60;;;16.30;99.90;;;;;;5102319;28;20225;-52
2021/07/02 05:55:02;;;;;;;16.63;11.30;;;16.40;99.90;;;;;;5101768;28;20246;-47
2021/07/02 05:57:28;;;;;;;17.70;11.73;;;16.40;99.90;;;;;;5093692;28;20217;-52
2021/07/02 05:59:55;;;;;;;21.70;11.43;;;16.40;99.90;;;;;;5087692;28;20205;-49
2021/07/02 06:02:22;;;;;;;18.73;10.87;;;16.40;99.90;;;;;;5094236;28;21892;-51
2021/07/02 06:04:48;;;;;;;15.97;10.93;;;16.40;99.90;;;;;;5102103;28;20197;-49
2021/07/02 06:07:15;;;;;;;13.50;10.37;;;16.40;99.90;;;;;;5089188;28;20197;-49
2021/07/02 06:09:41;;;;;;;17.30;10.73;;;16.40;99.90;;;;;;5087902;28;20197;-50
2021/07/02 06:12:10;;;;;;;17.57;11.57;;;16.50;99.90;;;;;;5102473;28;20213;-50
2021/07/02 06:14:36;;;;;;;19.20;12.03;;;16.50;99.90;;;;;;5088866;28;20205;-47
2021/07/02 06:17:03;;;;;;;13.40;10.50;;;16.50;99.90;;;;;;5102921;28;20217;-51
2021/07/02 06:19:30;;;;;;;17.50;10.80;;;16.50;99.90;;;;;;5101978;28;20200;-47
2021/07/02 06:21:57;;;;;;;16.40;10.73;;;16.50;99.90;;;;;;5099490;28;20718;-42
2021/07/02 06:24:23;;;;;;;17.27;10.23;;;16.50;99.90;;;;;;5102232;28;20205;-52
2021/07/02 06:26:50;;;;;;;21.77;10.80;;;16.60;99.90;;;;;;5105150;28;20598;-58
2021/07/02 06:29:18;;;;;;;17.80;10.47;;;16.70;99.90;;;;;;5085887;28;20201;-59
2021/07/02 06:31:45;;;;;;;15.23;10.50;;;16.80;99.90;;;;;;5104405;28;20221;-57
2021/07/02 06:34:11;;;;;;;13.97;10.20;;;16.80;99.90;;;;;;5101442;28;20189;-60
2021/07/02 06:36:38;;;;;;;14.40;11.10;;;16.80;99.90;;;;;;5098146;28;20218;-60
2021/07/02 06:39:04;;;;;;;14.30;10.37;;;16.90;99.90;;;;;;5102243;28;20205;-60
2021/07/02 06:41:31;;;;;;;15.57;9.77;;;17.00;99.90;;;;;;5102817;28;20216;-59
2021/07/02 06:43:58;;;;;;;15.87;10.23;;;17.00;99.90;;;;;;5094150;28;20200;-60
2021/07/02 06:46:26;;;;;;;16.20;10.07;;;17.10;99.90;;;;;;5087936;28;20193;-58
2021/07/02 06:48:52;;;;;;;14.83;10.80;;;17.10;99.90;;;;;;5101658;28;20673;-45
2021/07/02 06:51:19;;;;;;;14.97;9.93;;;17.20;99.90;;;;;;5095711;28;20221;-50
2021/07/02 06:53:45;;;;;;;13.27;10.93;;;17.20;99.90;;;;;;5093414;28;20212;-47
2021/07/02 06:56:14;;;;;;;15.87;10.93;;;17.20;99.90;;;;;;5061911;28;20213;-44
2021/07/02 06:58:40;;;;;;;14.87;10.43;;;17.20;99.90;;;;;;5095845;28;20276;-45
2021/07/02 07:01:07;;;;;;;12.13;10.47;;;17.30;99.90;;;;;;5082269;28;20217;-54
2021/07/02 07:03:36;;;;;;;12.43;9.87;;;17.30;99.90;;;;;;5105156;28;20531;-48
2021/07/02 07:06:03;;;;;;;16.57;11.20;;;17.40;99.90;;;;;;5093011;28;20260;-50
2021/07/02 07:08:30;;;;;;;18.73;12.30;;;17.40;99.90;;;;;;5095734;28;20201;-46
2021/07/02 07:10:56;;;;;;;15.73;11.40;;;17.40;99.90;;;;;;5089222;28;20209;-48
2021/07/02 07:13:23;;;;;;;14.13;10.57;;;17.40;99.90;;;;;;5097592;28;20212;-48
2021/07/02 07:15:50;;;;;;;18.57;10.97;;;17.40;99.90;;;;;;5082401;28;20194;-48
2021/07/02 07:18:16;;;;;;;18.40;10.83;;;17.50;99.90;;;;;;5097885;28;20213;-51
2021/07/02 07:20:45;;;;;;;14.70;9.53;;;17.60;99.90;;;;;;5094705;28;20209;-50
2021/07/02 07:23:12;;;;;;;16.57;10.90;;;17.70;99.90;;;;;;5088508;28;20296;-53
2021/07/02 07:25:38;;;;;;;14.37;10.23;;;17.70;99.90;;;;;;5105475;28;20205;-45
2021/07/02 07:28:06;;;;;;;15.33;10.37;;;17.80;99.90;;;;;;5093273;28;20702;-49
2021/07/02 07:30:32;;;;;;;13.33;10.80;;;17.80;99.90;;;;;;5102927;28;20197;-51
2021/07/02 07:33:00;;;;;;;16.80;10.30;;;17.90;99.90;;;;;;5073986;28;20965;-50
2021/07/02 07:35:31;;;;;;;17.00;10.13;;;17.90;99.90;;;;;;5099957;28;20236;-48
2021/07/02 07:37:59;;;;;;;12.73;10.20;;;18.10;99.90;;;;;;5088368;28;20213;-50
2021/07/02 07:40:28;;;;;;;10.67;9.20;;;18.10;99.90;;;;;;5096363;28;20206;-48
2021/07/02 07:42:55;;;;;;;14.83;10.33;;;18.10;99.90;;;;;;5092359;28;20198;-48
2021/07/02 07:45:22;;;;;;;15.07;10.00;;;18.20;99.90;;;;;;5100134;28;20208;-49
2021/07/02 07:47:49;;;;;;;12.00;9.10;;;18.20;99.90;;;;;;5087044;28;20574;-44
2021/07/02 07:50:19;;;;;;;12.33;9.50;;;18.30;99.90;;;;;;5098171;28;20192;-48
2021/07/02 07:52:52;;;;;;;12.80;9.40;;;18.30;99.90;;;;;;5100212;28;20589;-46
2021/07/02 07:55:20;;;;;;;12.30;9.70;;;18.20;99.90;;;;;;5098029;28;20197;-48
2021/07/02 07:57:46;;;;;;;13.33;10.20;;;18.30;99.90;;;;;;5088738;28;20670;-48
2021/07/02 08:00:14;;;;;;;11.43;8.80;;;18.40;99.90;;;;;;5097006;28;20814;-50
2021/07/02 08:02:41;;;;;;;10.67;8.80;;;18.50;99.90;;;;;;5083876;28;20225;-48
2021/07/02 08:05:08;;;;;;;11.97;8.87;;;18.60;99.90;;;;;;5085506;28;20862;-48
2021/07/02 08:07:38;;;;;;;11.33;8.77;;;18.50;99.90;;;;;;5102873;28;20209;-46
2021/07/02 08:10:08;;;;;;;9.30;8.33;;;18.60;99.90;;;;;;5087780;28;20189;-52
2021/07/02 08:12:36;;;;;;;10.73;8.73;;;18.70;99.90;;;;;;5096022;28;20224;-48
2021/07/02 08:15:05;;;;;;;10.97;8.50;;;18.70;99.90;;;;;;5093201;28;20210;-50
2021/07/02 08:17:32;;;;;;;11.77;8.97;;;18.80;99.90;;;;;;5096030;28;20236;-53
2021/07/02 08:19:58;;;;;;;11.03;9.13;;;18.90;99.90;;;;;;5085009;28;20882;-50
2021/07/02 08:22:26;;;;;;;12.53;8.53;;;19.00;99.90;;;;;;5104373;28;20217;-47
2021/07/02 08:24:53;;;;;;;12.73;8.37;;;19.10;99.90;;;;;;5095205;28;20213;-48
2021/07/02 08:27:22;;;;;;;11.40;9.37;;;19.10;99.90;;;;;;5094244;28;20219;-51
2021/07/02 08:29:50;;;;;;;14.30;9.20;;;19.10;99.90;;;;;;5097510;28;20251;-47
2021/07/02 08:32:17;;;;;;;12.80;8.40;;;19.00;99.90;;;;;;5096951;28;20233;-49
2021/07/02 08:34:44;;;;;;;12.67;8.80;;;19.00;99.90;;;;;;5089114;28;20662;-46
2021/07/02 08:37:11;;;;;;;8.97;7.90;;;19.10;99.90;;;;;;5087357;28;20328;-45
2021/07/02 08:39:37;;;;;;;10.50;8.03;;;19.20;99.90;;;;;;5098484;28;20193;-48
2021/07/02 08:42:05;;;;;;;9.07;8.07;;;19.20;99.90;;;;;;5089274;28;20209;-52
2021/07/02 08:44:32;;;;;;;10.93;7.80;;;19.30;99.90;;;;;;5098759;28;20201;-49
2021/07/02 08:47:01;;;;;;;13.20;8.47;;;19.30;99.90;;;;;;5095117;28;20288;-49
2021/07/02 08:49:31;;;;;;;11.13;8.30;;;19.40;99.90;;;;;;5086243;28;20198;-47
2021/07/02 08:51:58;;;;;;;11.83;8.53;;;19.50;99.90;;;;;;5085532;28;20220;-48
2021/07/02 08:54:24;;;;;;;9.47;7.60;;;19.60;99.90;;;;;;5101884;28;20201;-48
2021/07/02 08:56:57;;;;;;;10.90;8.40;;;19.60;99.90;;;;;;5091723;28;20279;-49
2021/07/02 08:59:24;;;;;;;9.87;8.50;;;19.60;99.90;;;;;;5102133;28;20203;-50
2021/07/02 09:01:52;;;;;;;10.57;7.53;;;19.60;99.90;;;;;;5099022;28;20221;-49
2021/07/02 09:04:22;;;;;;;13.73;7.77;;;19.70;99.90;;;;;;5098289;28;20286;-48
2021/07/02 09:07:08;;;;;;;9.83;7.47;;;19.80;99.90;;;;;;5079919;28;20232;-48
2021/07/02 09:09:54;;;;;;;12.03;7.67;;;19.70;99.90;;;;;;5100308;28;20197;-47
2021/07/02 09:12:24;;;;;;;11.13;8.07;;;19.70;99.90;;;;;;5085783;28;20225;-51
2021/07/02 09:15:07;;;;;;;9.03;5.93;;;19.80;99.90;;;;;;5094285;28;20193;-52
2021/07/02 09:17:36;;;;;;;7.47;6.37;;;19.80;99.90;;;;;;5103757;28;20220;-47
2021/07/02 09:20:11;;;;;;;9.03;6.77;;;19.60;99.90;;;;;;5093579;28;20933;-50
2021/07/02 09:22:56;;;;;;;9.53;6.53;;;19.60;99.90;;;;;;5080018;28;20221;-51
2021/07/02 09:25:29;;;;;;;7.73;5.93;;;19.50;99.90;;;;;;5094010;28;20322;-48
2021/07/02 09:27:59;;;;;;;7.50;6.63;;;19.50;99.90;;;;;;5088286;28;20190;-48
2021/07/02 09:30:27;;;;;;;6.90;6.13;;;19.50;99.90;;;;;;5097298;28;20240;-50
2021/07/02 09:32:56;;;;;;;9.93;6.50;;;19.60;99.90;;;;;;5094655;28;20186;-48
2021/07/02 09:35:30;;;;;;;9.50;5.90;;;19.80;99.90;;;;;;5092126;28;20205;-51
2021/07/02 09:37:58;;;;;;;6.17;5.57;;;20.00;99.90;;;;;;5077247;28;20277;-50
2021/07/02 09:40:26;;;;;;;7.20;6.07;;;20.30;99.90;;;;;;5100345;28;20198;-48
2021/07/02 09:43:08;;;;;;;5.43;4.90;;;20.40;99.90;;;;;;5094252;28;20630;-49
2021/07/02 09:45:44;;;;;;;5.77;5.17;;;20.50;99.90;;;;;;5099740;28;20197;-51
2021/07/02 09:48:12;;;;;;;5.80;5.20;;;20.60;99.90;;;;;;5092979;28;20693;-50
2021/07/02 09:50:43;;;;;;;7.50;5.77;;;20.70;99.90;;;;;;5102756;28;20201;-48
2021/07/02 09:53:11;;;;;;;6.87;5.33;;;20.80;99.90;;;;;;5082025;28;20206;-51
2021/07/02 09:55:44;;;;;;;8.10;4.87;;;20.70;99.90;;;;;;5099866;28;20753;-51
2021/07/02 09:58:14;;;;;;;8.07;5.10;;;20.50;99.90;;;;;;5099384;28;20304;-48
2021/07/02 10:00:43;;;;;;;9.20;5.83;;;20.30;99.90;;;;;;5091564;28;20217;-45
2021/07/02 10:03:11;;;;;;;7.80;5.27;;;20.30;99.90;;;;;;5087488;28;20201;-53
2021/07/02 10:05:52;;;;;;;9.60;5.83;;;20.30;99.90;;;;;;5098718;28;20291;-52
2021/07/02 10:08:19;;;;;;;6.97;6.10;;;20.40;99.90;;;;;;5099194;28;20197;-50
2021/07/02 10:10:46;;;;;;;7.80;6.73;;;20.50;99.90;;;;;;5084227;28;20217;-50
2021/07/02 10:13:14;;;;;;;8.17;6.30;;;20.60;99.90;;;;;;5093360;28;20962;-48
2021/07/02 10:15:43;;;;;;;7.32;5.40;;;20.80;99.90;;;;;;5096338;28;20201;-50
2021/07/02 10:18:12;;;;;;;7.37;5.97;;;20.90;99.90;;;;;;5096898;28;20220;-46
2021/07/02 10:20:42;;;;;;;6.97;5.53;;;21.00;99.90;;;;;;5092297;28;20200;-49
2021/07/02 10:23:12;;;;;;;6.93;5.57;;;21.10;99.90;;;;;;5092960;28;20201;-49
2021/07/02 10:25:41;;;;;;;8.10;5.90;;;21.20;99.90;;;;;;5088929;28;20212;-49
2021/07/02 10:28:10;;;;;;;6.43;5.80;;;21.20;99.90;;;;;;5099832;28;20197;-50
2021/07/02 10:30:42;;;;;;;7.00;5.30;;;;;;;;;;5091141;28;20212;-51
2021/07/02 10:33:10;;;;;;;5.70;5.15;;;;;;;;;;5098097;28;20189;-50
2021/07/02 10:35:44;;;;;;;7.67;5.80;;;;;;;;;;5100758;28;20607;-50
2021/07/02 10:38:15;;;;;;;6.20;5.20;;;;;;;;;;5091514;28;20229;-50
2021/07/02 10:40:46;;;;;;;10.07;5.47;;;;;;;;;;5086161;28;20732;-46
2021/07/02 10:43:18;;;;;;;8.73;6.28;;;;;;;;;;5098417;28;20193;-50
2021/07/02 10:46:03;;;;;;;7.75;6.13;;;;;;;;;;5094060;28;20193;-50
2021/07/02 10:48:52;;;;;;;10.48;6.57;;;;;;;;;;5104105;28;20198;-50
2021/07/02 10:51:42;;;;;;;10.60;6.20;;;;;;;;;;5086941;28;20220;-50
2021/07/02 10:54:29;;;;;;;8.73;6.00;;;;;;;;;;5091655;28;20224;-52
2021/07/02 10:57:07;;;;;;;6.67;5.07;;;;;;;;;;5076882;28;20963;-48
2021/07/02 10:59:57;;;;;;;7.20;5.03;;;;;;;;;;5093248;28;20217;-47
2021/07/02 11:02:24;;;;;;;8.00;5.80;;;;;;;;;;5085405;28;20292;-52
2021/07/02 11:04:52;;;;;;;7.37;5.33;;;;;;;;;;5084691;28;20277;-52
2021/07/02 11:07:38;;;;;;;9.60;5.77;;;;;;;;;;5095027;28;20202;-50
2021/07/02 11:10:06;;;;;;;9.23;5.87;;;;;;;;;;5093708;28;20205;-50
2021/07/02 11:12:35;;;;;;;7.60;5.85;;;;;;;;;;5081611;28;20225;-49
2021/07/02 11:15:15;;;;;;;7.28;5.55;;;;;;;;;;5097848;28;20284;-48
2021/07/02 11:17:43;;;;;;;7.63;5.67;;;;;;;;;;5091122;28;20198;-49
2021/07/02 11:20:29;;;;;;;8.73;5.47;;;;;;;;;;5103926;28;20297;-51
2021/07/02 11:23:15;;;;;;;5.43;4.97;;;21.70;99.90;;;;;;5100174;28;20689;-49
2021/07/02 11:25:47;;;;;;;8.65;5.15;;;;;;;;;;5092372;28;20716;-53
2021/07/02 11:28:18;;;;;;;9.32;6.22;;;22.00;99.90;;;;;;5085953;28;20700;-48
2021/07/02 11:30:47;;;;;;;8.52;5.82;;;22.10;99.90;;;;;;5092404;28;20941;-51
2021/07/02 11:33:20;;;;;;;8.50;5.72;;;22.30;99.90;;;;;;5096668;28;20212;-48
2021/07/02 11:35:48;;;;;;;5.57;5.07;;;22.20;99.90;;;;;;5101888;28;20192;-49
2021/07/02 11:38:16;;;;;;;7.90;5.32;;;21.90;99.90;;;;;;5104906;28;20241;-50
2021/07/02 11:40:48;;;;;;;6.90;5.53;;;21.60;99.90;;;;;;5093559;28;20295;-49
2021/07/02 11:43:17;;;;;;;8.43;5.40;;;21.40;99.90;;;;;;5085077;28;20289;-50
2021/07/02 11:45:45;;;;;;;7.15;5.78;;;21.50;99.90;;;;;;5097953;28;20194;-48
2021/07/02 11:48:29;;;;;;;6.63;5.88;;;21.50;99.90;;;;;;5096394;28;20216;-53
2021/07/02 11:50:57;;;;;;;7.80;5.85;;;21.40;99.90;;;;;;5098346;28;20222;-49
2021/07/02 11:53:31;;;;;;;7.25;6.22;;;21.30;99.90;;;;;;5101584;28;20197;-51
2021/07/02 11:56:04;;;;;;;7.13;6.32;;;21.30;99.90;;;;;;5105151;27;20675;-51
2021/07/02 11:58:33;;;;;;;5.50;4.75;;;21.40;99.90;;;;;;5079560;28;20213;-48
2021/07/02 12:01:02;;;;;;;8.38;5.57;;;21.50;99.90;;;;;;5102695;28;20296;-50
2021/07/02 12:03:29;;;;;;;6.55;5.47;;;21.70;99.90;;;;;;5092272;28;20203;-47
2021/07/02 12:05:57;;;;;;;6.05;5.45;;;21.70;99.90;;;;;;5104319;28;20563;-49
2021/07/02 12:08:25;;;;;;;6.47;5.78;;;21.50;99.90;;;;;;5099637;28;20205;-51
2021/07/02 12:11:00;;;;;;;7.65;6.05;;;21.50;99.90;;;;;;5092909;28;20236;-51
2021/07/02 12:13:27;;;;;;;7.50;5.00;;;21.50;99.90;;;;;;5092713;28;20203;-49
2021/07/02 12:16:03;;;;;;;6.30;5.60;;;21.60;99.90;;;;;;5086694;28;20194;-49
2021/07/02 12:18:30;;;;;;;9.30;5.85;;;21.80;99.90;;;;;;5091015;28;20221;-49
2021/07/02 12:21:07;;;;;;;7.90;6.05;;;22.10;99.90;;;;;;5102577;28;20569;-54
2021/07/02 12:23:36;;;;;;;7.50;5.75;;;22.20;99.90;;;;;;5099936;28;20193;-53
2021/07/02 12:26:15;;;;;;;6.28;5.50;;;22.00;99.90;;;;;;5102382;28;20201;-51
2021/07/02 12:29:03;;;;;;;8.98;5.88;;;21.70;99.90;;;;;;5095455;28;20207;-50
2021/07/02 12:31:33;;;;;;;7.85;5.60;;;21.50;99.90;;;;;;5081350;28;20532;-51
2021/07/02 12:34:01;;;;;;;7.30;4.88;;;21.40;99.90;;;;;;5095763;28;20200;-50
2021/07/02 12:36:29;;;;;;;10.23;5.18;;;21.50;99.90;;;;;;5100590;28;20226;-53
2021/07/02 12:39:05;;;;;;;7.82;5.25;;;21.70;99.90;;;;;;5102286;28;20211;-51
2021/07/02 12:41:40;;;;;;;8.02;5.30;;;21.80;99.90;;;;;;5092754;28;20209;-54
2021/07/02 12:44:08;;;;;;;5.63;5.13;;;21.90;99.90;;;;;;5095896;28;20550;-46
2021/07/02 12:46:37;;;;;;;7.82;6.15;;;22.10;99.90;;;;;;5086019;28;20475;-49
2021/07/02 12:49:26;;;;;;;6.40;5.78;;;22.40;99.90;;;;;;5086181;28;20276;-49